createdAt,value
2018-09-18T00:00:51.813Z,7.53
2018-09-18T00:03:20.000Z,7.73
2018-09-18T00:05:48.209Z,7.90
2018-09-18T00:08:16.950Z,7.30
2018-09-18T00:10:45.442Z,7.17
2018-09-18T00:13:14.051Z,7.07
2018-09-18T00:15:42.245Z,6.70
2018-09-18T00:18:10.409Z,6.70
2018-09-18T00:20:39.826Z,6.80
2018-09-18T00:23:08.022Z,7.20
2018-09-18T00:25:36.611Z,6.47
2018-09-18T00:28:04.840Z,6.67
2018-09-18T00:30:33.022Z,7.13
2018-09-18T00:33:01.240Z,6.73
2018-09-18T00:35:29.400Z,7.10
2018-09-18T00:37:57.580Z,6.60
2018-09-18T00:40:25.750Z,6.90
2018-09-18T00:42:53.978Z,6.63
2018-09-18T00:45:22.185Z,6.40
2018-09-18T00:47:50.341Z,6.77
2018-09-18T00:50:18.501Z,6.13
2018-09-18T00:52:46.652Z,5.83
2018-09-18T00:55:14.822Z,6.73
2018-09-18T00:57:43.010Z,6.93
2018-09-18T01:00:11.195Z,5.97
2018-09-18T01:02:39.313Z,6.50
2018-09-18T01:05:07.471Z,7.70
2018-09-18T01:07:35.747Z,7.10
2018-09-18T01:10:03.918Z,6.97
2018-09-18T01:12:32.063Z,6.00
2018-09-18T01:15:00.225Z,6.07
2018-09-18T01:17:28.397Z,6.30
2018-09-18T01:19:56.567Z,6.07
2018-09-18T01:22:24.723Z,6.17
2018-09-18T01:24:52.937Z,6.10
2018-09-18T01:27:21.090Z,6.30
2018-09-18T01:29:49.227Z,5.73
2018-09-18T01:32:17.408Z,6.20
2018-09-18T01:34:45.570Z,6.20
2018-09-18T01:37:13.676Z,5.43
2018-09-18T01:39:41.810Z,5.70
2018-09-18T01:42:09.962Z,6.20
2018-09-18T01:44:38.159Z,5.40
2018-09-18T01:47:06.341Z,6.30
2018-09-18T01:49:34.468Z,6.10
2018-09-18T01:52:02.712Z,5.80
2018-09-18T01:54:30.893Z,5.10
2018-09-18T01:56:58.985Z,5.80
2018-09-18T01:59:27.112Z,5.83
2018-09-18T02:01:55.275Z,5.27
2018-09-18T02:04:29.831Z,6.10
2018-09-18T02:06:57.958Z,5.17
2018-09-18T02:09:26.150Z,5.97
2018-09-18T02:11:54.316Z,5.77
2018-09-18T02:14:22.446Z,5.30
2018-09-18T02:16:50.679Z,5.90
2018-09-18T02:19:18.828Z,5.50
2018-09-18T02:21:46.974Z,5.30
2018-09-18T02:24:15.156Z,5.87
2018-09-18T02:26:43.298Z,6.10
2018-09-18T02:29:11.444Z,5.97
2018-09-18T02:31:39.608Z,4.97
2018-09-18T02:34:07.782Z,6.07
2018-09-18T02:36:35.956Z,5.70
2018-09-18T02:39:06.694Z,5.50
2018-09-18T02:41:36.131Z,5.43
2018-09-18T02:44:04.382Z,5.63
2018-09-18T02:46:32.613Z,6.33
2018-09-18T02:49:00.756Z,6.20
2018-09-18T02:51:28.902Z,6.30
2018-09-18T02:53:58.522Z,5.60
2018-09-18T02:56:26.719Z,7.37
2018-09-18T02:58:54.846Z,6.13
2018-09-18T03:01:22.985Z,6.07
2018-09-18T03:03:52.149Z,6.67
2018-09-18T03:06:20.469Z,5.90
2018-09-18T03:08:48.651Z,6.43
2018-09-18T03:11:16.835Z,6.47
2018-09-18T03:13:46.094Z,6.30
2018-09-18T03:16:14.294Z,6.57
2018-09-18T03:18:42.526Z,6.17
2018-09-18T03:21:10.700Z,5.97
2018-09-18T03:23:39.352Z,6.57
2018-09-18T03:26:07.534Z,6.90
2018-09-18T03:28:35.864Z,6.73
2018-09-18T03:31:03.984Z,6.20
2018-09-18T03:33:32.146Z,5.97
2018-09-18T03:36:00.282Z,6.93
2018-09-18T03:38:29.356Z,6.40
2018-09-18T03:40:57.552Z,6.70
2018-09-18T03:43:25.703Z,7.73
2018-09-18T03:45:53.892Z,7.20
2018-09-18T03:48:22.084Z,6.17
2018-09-18T03:50:50.272Z,6.20
2018-09-18T03:53:18.421Z,7.10
2018-09-18T03:55:46.618Z,6.23
2018-09-18T03:58:14.778Z,6.70
2018-09-18T04:00:42.946Z,7.03
2018-09-18T04:03:11.099Z,8.47
2018-09-18T04:05:39.226Z,9.00
2018-09-18T04:08:07.385Z,10.87
2018-09-18T04:10:35.508Z,11.40
2018-09-18T04:13:03.660Z,10.80
2018-09-18T04:15:31.806Z,12.23
2018-09-18T04:18:00.036Z,12.17
2018-09-18T04:20:28.250Z,13.43
2018-09-18T04:22:56.447Z,13.63
2018-09-18T04:25:24.766Z,15.43
2018-09-18T04:27:52.921Z,13.67
2018-09-18T04:30:21.098Z,13.60
2018-09-18T04:32:49.376Z,13.70
2018-09-18T04:35:18.604Z,13.90
2018-09-18T04:37:46.792Z,13.47
2018-09-18T04:40:14.958Z,16.37
2018-09-18T04:42:43.141Z,16.83
2018-09-18T04:45:11.326Z,17.97
2018-09-18T04:47:41.278Z,18.60
2018-09-18T04:50:09.444Z,17.53
2018-09-18T04:52:37.577Z,16.80
2018-09-18T04:55:05.851Z,18.00
2018-09-18T04:57:37.041Z,18.40
2018-09-18T05:00:05.894Z,16.00
2018-09-18T05:02:34.032Z,15.80
2018-09-18T05:05:02.192Z,12.80
2018-09-18T05:07:30.326Z,12.43
2018-09-18T05:09:58.534Z,8.27
2018-09-18T05:12:26.682Z,8.60
2018-09-18T05:14:54.880Z,8.90
2018-09-18T05:17:23.140Z,7.87
2018-09-18T05:19:51.328Z,7.00
2018-09-18T05:22:19.501Z,7.90
2018-09-18T05:24:47.702Z,7.97
2018-09-18T05:27:15.894Z,7.50
2018-09-18T05:29:44.070Z,6.97
2018-09-18T05:32:12.616Z,7.10
2018-09-18T05:34:40.780Z,7.33
2018-09-18T05:37:09.084Z,7.97
2018-09-18T05:39:37.338Z,6.90
2018-09-18T05:42:05.579Z,8.67
2018-09-18T05:44:33.758Z,7.63
2018-09-18T05:47:01.932Z,7.97
2018-09-18T05:49:30.985Z,8.07
2018-09-18T05:51:59.522Z,8.83
2018-09-18T05:54:27.651Z,7.77
2018-09-18T05:56:55.845Z,8.90
2018-09-18T05:59:24.057Z,7.23
2018-09-18T06:01:52.254Z,7.87
2018-09-18T06:04:20.450Z,7.20
2018-09-18T06:06:48.636Z,7.80
2018-09-18T06:09:16.831Z,7.63
2018-09-18T06:11:45.440Z,8.17
2018-09-18T06:14:13.590Z,7.43
2018-09-18T06:16:41.747Z,8.03
2018-09-18T06:19:09.973Z,8.10
2018-09-18T06:21:38.137Z,8.57
2018-09-18T06:24:06.442Z,9.13
2018-09-18T06:26:34.586Z,8.70
2018-09-18T06:29:02.755Z,8.20
2018-09-18T06:31:30.905Z,8.03
2018-09-18T06:33:59.061Z,8.10
2018-09-18T06:36:27.205Z,9.27
2018-09-18T06:38:55.517Z,8.50
2018-09-18T06:41:23.686Z,8.90
2018-09-18T06:43:52.027Z,8.83
2018-09-18T06:46:20.199Z,9.03
2018-09-18T06:48:48.383Z,10.23
2018-09-18T06:51:16.547Z,9.30
2018-09-18T06:53:44.745Z,9.00
2018-09-18T06:56:12.889Z,9.80
2018-09-18T06:58:41.041Z,9.20
2018-09-18T07:01:09.216Z,8.57
2018-09-18T07:03:37.359Z,8.80
2018-09-18T07:06:05.693Z,8.70
2018-09-18T07:08:34.016Z,9.10
2018-09-18T07:11:02.183Z,9.90
2018-09-18T07:13:30.539Z,9.10
2018-09-18T07:15:59.377Z,9.13
2018-09-18T07:18:27.538Z,8.13
2018-09-18T07:20:55.714Z,9.63
2018-09-18T07:23:23.879Z,9.53
2018-09-18T07:25:52.135Z,9.40
2018-09-18T07:28:20.328Z,8.57
2018-09-18T07:30:48.491Z,9.20
2018-09-18T07:33:16.709Z,8.60
2018-09-18T07:35:44.905Z,9.33
2018-09-18T07:38:13.059Z,8.00
2018-09-18T07:40:42.076Z,9.00
2018-09-18T07:43:10.405Z,7.67
2018-09-18T07:45:38.567Z,7.80
2018-09-18T07:48:06.792Z,8.80
2018-09-18T07:50:34.984Z,7.43
2018-09-18T07:53:03.324Z,8.40
2018-09-18T07:55:31.496Z,8.13
2018-09-18T07:57:59.882Z,8.20
2018-09-18T08:00:28.020Z,6.67
2018-09-18T08:02:56.186Z,7.67
2018-09-18T08:05:24.406Z,7.77
2018-09-18T08:07:52.661Z,7.80
2018-09-18T08:10:20.844Z,8.17
2018-09-18T08:12:49.059Z,7.60
2018-09-18T08:15:17.253Z,8.80
2018-09-18T08:17:45.486Z,7.77
2018-09-18T08:20:13.702Z,6.70
2018-09-18T08:22:41.844Z,7.93
2018-09-18T08:25:10.029Z,7.80
2018-09-18T08:27:38.200Z,8.07
2018-09-18T08:30:07.556Z,7.47
2018-09-18T08:32:35.856Z,7.97
2018-09-18T08:35:03.924Z,7.77
2018-09-18T08:37:32.082Z,7.17
2018-09-18T08:40:00.331Z,7.60
2018-09-18T08:42:28.415Z,7.07
2018-09-18T08:44:56.618Z,6.73
2018-09-18T08:47:25.552Z,7.00
2018-09-18T08:49:53.736Z,6.13
2018-09-18T08:52:21.903Z,7.47
2018-09-18T08:54:50.099Z,6.13
2018-09-18T08:57:18.394Z,6.70
2018-09-18T08:59:47.561Z,5.40
2018-09-18T09:02:15.783Z,6.27
2018-09-18T09:04:44.039Z,7.27
2018-09-18T09:07:12.213Z,6.10
2018-09-18T09:09:40.445Z,6.67
2018-09-18T09:12:08.606Z,6.60
2018-09-18T09:14:36.836Z,6.40
2018-09-18T09:17:05.010Z,6.30
2018-09-18T09:19:33.266Z,6.07
2018-09-18T09:22:01.489Z,6.47
2018-09-18T09:24:29.818Z,6.20
2018-09-18T09:26:58.053Z,6.20
2018-09-18T09:29:26.256Z,7.00
2018-09-18T09:31:54.412Z,7.00
2018-09-18T09:34:22.588Z,6.57
2018-09-18T09:36:50.832Z,5.77
2018-09-18T09:39:18.962Z,6.20
2018-09-18T09:41:47.170Z,5.93
2018-09-18T09:44:15.369Z,6.00
2018-09-18T09:46:43.562Z,6.00
2018-09-18T09:49:11.744Z,7.30
2018-09-18T09:51:40.030Z,6.93
2018-09-18T09:54:08.218Z,6.60
2018-09-18T09:56:36.410Z,6.07
2018-09-18T09:59:04.652Z,5.70
2018-09-18T10:01:39.564Z,6.63
2018-09-18T10:04:08.070Z,7.63
2018-09-18T10:06:36.300Z,5.83
2018-09-18T10:09:06.636Z,6.27
2018-09-18T10:11:34.784Z,6.10
2018-09-18T10:14:04.056Z,6.77
2018-09-18T10:16:32.208Z,7.13
2018-09-18T10:19:00.411Z,5.90
2018-09-18T10:21:28.566Z,6.17
2018-09-18T10:23:56.870Z,7.13
2018-09-18T10:26:25.924Z,5.90
2018-09-18T10:28:54.015Z,6.73
2018-09-18T10:31:22.308Z,6.37
2018-09-18T10:33:50.550Z,6.20
2018-09-18T10:36:18.678Z,6.10
2018-09-18T10:38:46.896Z,5.77
2018-09-18T10:41:15.125Z,5.27
2018-09-18T10:43:43.280Z,5.33
2018-09-18T10:46:11.449Z,5.53
2018-09-18T10:48:45.021Z,5.57
2018-09-18T10:51:13.244Z,4.90
2018-09-18T10:53:41.472Z,5.00
2018-09-18T10:56:09.648Z,5.40
2018-09-18T10:58:37.868Z,5.20
2018-09-18T11:01:06.230Z,4.63
2018-09-18T11:03:34.384Z,5.03
2018-09-18T11:06:02.619Z,3.97
2018-09-18T11:08:30.812Z,3.70
2018-09-18T11:10:58.990Z,4.20
2018-09-18T11:13:27.192Z,4.67
2018-09-18T11:15:55.440Z,4.30
2018-09-18T11:18:23.584Z,4.03
2018-09-18T11:20:51.755Z,4.23
2018-09-18T11:23:19.963Z,4.70
2018-09-18T11:25:48.131Z,5.10
2018-09-18T11:28:16.323Z,4.57
2018-09-18T11:30:44.494Z,5.77
2018-09-18T11:33:12.705Z,4.73
2018-09-18T11:35:40.950Z,4.10
2018-09-18T11:38:09.538Z,4.20
2018-09-18T11:40:37.718Z,5.67
2018-09-18T11:43:05.910Z,4.30
2018-09-18T11:45:34.086Z,4.00
2018-09-18T11:48:02.256Z,4.40
2018-09-18T11:50:30.452Z,4.60
2018-09-18T11:52:59.470Z,3.77
2018-09-18T11:55:27.582Z,4.07
2018-09-18T11:57:55.725Z,3.90
2018-09-18T12:00:23.881Z,4.43
2018-09-18T12:02:52.103Z,4.53
2018-09-18T12:05:20.292Z,5.20
2018-09-18T12:07:48.500Z,3.97
2018-09-18T12:10:16.682Z,4.20
2018-09-18T12:12:46.252Z,3.60
2018-09-18T12:15:14.506Z,3.80
2018-09-18T12:17:42.659Z,4.33
2018-09-18T12:20:11.071Z,4.23
2018-09-18T12:22:39.249Z,4.20
2018-09-18T12:25:07.426Z,3.63
2018-09-18T12:27:35.671Z,4.33
2018-09-18T12:30:04.419Z,3.90
2018-09-18T12:32:32.616Z,3.77
2018-09-18T12:35:00.772Z,4.10
2018-09-18T12:37:29.028Z,3.83
2018-09-18T12:39:57.152Z,4.63
2018-09-18T12:42:25.955Z,5.23
2018-09-18T12:44:54.114Z,4.73
2018-09-18T12:47:22.286Z,3.63
2018-09-18T12:49:50.631Z,3.47
2018-09-18T12:52:19.149Z,4.03
2018-09-18T12:54:47.630Z,3.93
2018-09-18T12:57:16.032Z,3.43
2018-09-18T12:59:44.003Z,3.90
2018-09-18T13:02:12.122Z,3.90
2018-09-18T13:04:40.306Z,3.60
2018-09-18T13:07:08.698Z,4.47
2018-09-18T13:09:36.742Z,4.20
2018-09-18T13:12:05.032Z,4.40
2018-09-18T13:14:33.156Z,3.60
2018-09-18T13:17:01.347Z,4.70
2018-09-18T13:19:29.541Z,4.27
2018-09-18T13:21:57.789Z,4.67
2018-09-18T13:24:26.055Z,5.10
2018-09-18T13:26:54.332Z,4.63
2018-09-18T13:29:22.537Z,4.43
2018-09-18T13:31:50.751Z,4.20
2018-09-18T13:34:18.956Z,5.23
2018-09-18T13:36:47.126Z,4.37
2018-09-18T13:39:15.304Z,6.73
2018-09-18T13:41:43.624Z,6.10
2018-09-18T13:44:11.869Z,6.90
2018-09-18T13:46:40.186Z,5.43
2018-09-18T13:49:08.472Z,5.50
2018-09-18T13:51:36.680Z,3.53
2018-09-18T13:54:04.888Z,4.20
2018-09-18T13:56:33.220Z,4.77
2018-09-18T13:59:01.215Z,4.50
2018-09-18T14:01:29.479Z,4.73
2018-09-18T14:03:57.610Z,4.57
2018-09-18T14:06:25.850Z,4.10
2018-09-18T14:08:54.141Z,4.10
2018-09-18T14:11:22.344Z,4.13
2018-09-18T14:13:50.616Z,5.00
2018-09-18T14:16:18.814Z,3.80
2018-09-18T14:18:47.058Z,3.60
2018-09-18T14:21:15.267Z,3.70
2018-09-18T14:23:43.604Z,4.20
2018-09-18T14:26:11.871Z,4.30
2018-09-18T14:28:40.090Z,4.40
2018-09-18T14:31:08.247Z,5.90
2018-09-18T14:33:36.876Z,4.90
2018-09-18T14:36:05.038Z,5.30
2018-09-18T14:38:33.273Z,4.10
2018-09-18T14:41:01.472Z,3.80
2018-09-18T14:43:29.649Z,3.90
2018-09-18T14:45:58.089Z,4.43
2018-09-18T14:48:26.269Z,4.50
2018-09-18T14:50:54.407Z,3.53
2018-09-18T14:53:22.581Z,4.40
2018-09-18T14:55:50.777Z,4.20
2018-09-18T14:58:18.956Z,5.07
2018-09-18T15:00:47.120Z,5.00
2018-09-18T15:03:15.312Z,4.27
2018-09-18T15:05:43.631Z,4.43
2018-09-18T15:08:11.803Z,4.37
2018-09-18T15:10:39.969Z,4.77
2018-09-18T15:13:08.144Z,3.77
2018-09-18T15:15:36.329Z,4.57
2018-09-18T15:18:04.755Z,3.93
2018-09-18T15:20:32.905Z,3.60
2018-09-18T15:23:01.192Z,3.50
2018-09-18T15:25:29.378Z,3.50
2018-09-18T15:27:57.693Z,4.27
2018-09-18T15:30:25.896Z,4.00
2018-09-18T15:32:55.853Z,3.90
2018-09-18T15:35:24.112Z,3.43
2018-09-18T15:37:52.459Z,4.23
2018-09-18T15:40:20.657Z,3.43
2018-09-18T15:42:48.811Z,3.10
2018-09-18T15:45:17.024Z,3.60
2018-09-18T15:47:45.210Z,3.10
2018-09-18T15:50:13.465Z,8.03
2018-09-18T15:52:42.343Z,4.37
2018-09-18T15:55:11.379Z,4.00
2018-09-18T15:57:40.557Z,4.37
2018-09-18T16:00:08.777Z,7.47
2018-09-18T16:02:37.262Z,4.00
2018-09-18T16:05:06.010Z,3.23
2018-09-18T16:07:34.190Z,4.50
2018-09-18T16:10:02.419Z,4.60
2018-09-18T16:12:30.685Z,4.73
2018-09-18T16:14:58.949Z,5.60
2018-09-18T16:17:27.130Z,3.10
2018-09-18T16:19:55.721Z,3.53
2018-09-18T16:22:24.012Z,3.63
2018-09-18T16:24:52.427Z,6.37
2018-09-18T16:27:21.516Z,5.47
2018-09-18T16:29:49.699Z,4.83
2018-09-18T16:32:17.896Z,5.20
2018-09-18T16:34:46.053Z,4.70
2018-09-18T16:37:14.212Z,4.53
2018-09-18T16:39:42.410Z,4.60
2018-09-18T16:42:10.588Z,5.10
2018-09-18T16:44:39.340Z,5.87
2018-09-18T16:47:07.578Z,5.20
2018-09-18T16:49:35.828Z,4.83
2018-09-18T16:52:03.998Z,5.80
2018-09-18T16:54:32.316Z,5.60
2018-09-18T16:57:00.436Z,6.00
2018-09-18T16:59:28.593Z,7.33
2018-09-18T17:01:56.868Z,6.67
2018-09-18T17:04:25.248Z,6.80
2018-09-18T17:06:53.446Z,6.90
2018-09-18T17:09:21.607Z,5.70
2018-09-18T17:11:49.873Z,10.63
2018-09-18T17:14:18.092Z,7.57
2018-09-18T17:16:46.274Z,7.80
2018-09-18T17:19:14.535Z,7.30
2018-09-18T17:21:42.911Z,11.47
2018-09-18T17:24:11.155Z,10.87
2018-09-18T17:26:39.328Z,8.43
2018-09-18T17:29:07.570Z,20.37
2018-09-18T17:31:35.805Z,11.80
2018-09-18T17:34:04.255Z,8.90
2018-09-18T17:36:32.424Z,9.63
2018-09-18T17:39:00.644Z,9.17
2018-09-18T17:41:29.097Z,8.43
2018-09-18T17:43:57.255Z,8.13
2018-09-18T17:46:25.472Z,8.37
2018-09-18T17:48:53.780Z,7.70
2018-09-18T17:51:22.106Z,8.00
2018-09-18T17:53:50.378Z,7.87
2018-09-18T17:56:19.249Z,9.40
2018-09-18T17:58:47.500Z,8.83
2018-09-18T18:01:15.779Z,8.00
2018-09-18T18:03:44.285Z,9.10
2018-09-18T18:06:12.663Z,10.23
2018-09-18T18:08:40.832Z,8.93
2018-09-18T18:11:09.089Z,9.40
2018-09-18T18:13:37.322Z,9.23
2018-09-18T18:16:05.565Z,10.93
2018-09-18T18:18:33.912Z,12.67
2018-09-18T18:21:02.639Z,12.80
2018-09-18T18:23:32.413Z,12.70
2018-09-18T18:26:00.598Z,14.67
2018-09-18T18:28:28.809Z,10.60
2018-09-18T18:30:57.049Z,12.00
2018-09-18T18:33:30.337Z,9.20
2018-09-18T18:35:58.761Z,9.00
2018-09-18T18:38:27.051Z,10.13
2018-09-18T18:40:55.306Z,9.60
2018-09-18T18:43:23.502Z,9.37
2018-09-18T18:45:51.707Z,10.80
2018-09-18T18:48:20.084Z,9.90
2018-09-18T18:50:48.237Z,9.83
2018-09-18T18:53:16.528Z,8.80
2018-09-18T18:55:44.849Z,8.70
2018-09-18T18:58:13.026Z,8.10
2018-09-18T19:00:42.049Z,8.97
2018-09-18T19:03:10.238Z,13.97
2018-09-18T19:05:38.487Z,9.67
2018-09-18T19:08:06.719Z,10.30
2018-09-18T19:10:34.983Z,9.50
2018-09-18T19:13:03.253Z,9.70
2018-09-18T19:15:33.343Z,10.10
2018-09-18T19:18:01.653Z,10.47
2018-09-18T19:20:31.736Z,11.40
2018-09-18T19:22:59.960Z,11.00
2018-09-18T19:25:28.225Z,11.37
2018-09-18T19:27:58.363Z,11.37
2018-09-18T19:30:26.552Z,12.40
2018-09-18T19:32:54.858Z,11.03
2018-09-18T19:35:23.860Z,10.23
2018-09-18T19:37:52.113Z,10.53
2018-09-18T19:40:20.397Z,10.63
2018-09-18T19:42:48.899Z,11.03
2018-09-18T19:45:17.156Z,10.73
2018-09-18T19:47:45.452Z,12.30
2018-09-18T19:50:17.037Z,11.87
2018-09-18T19:52:46.380Z,11.47
2018-09-18T19:55:15.378Z,12.33
2018-09-18T19:57:43.696Z,12.10
2018-09-18T20:00:12.616Z,13.30
2018-09-18T20:02:41.526Z,12.50
2018-09-18T20:05:10.013Z,11.23
2018-09-18T20:07:38.246Z,11.97
2018-09-18T20:10:06.698Z,11.50
2018-09-18T20:12:34.921Z,11.30
2018-09-18T20:15:03.116Z,12.50
2018-09-18T20:17:31.389Z,11.63
2018-09-18T20:19:59.723Z,10.97
2018-09-18T20:22:28.462Z,10.43
2018-09-18T20:24:57.217Z,10.10
2018-09-18T20:27:26.083Z,12.50
2018-09-18T20:29:54.325Z,10.67
2018-09-18T20:32:22.662Z,11.73
2018-09-18T20:34:51.401Z,13.53
2018-09-18T20:37:19.688Z,11.67
2018-09-18T20:39:47.909Z,10.13
2018-09-18T20:42:17.047Z,10.70
2018-09-18T20:44:45.301Z,11.00
2018-09-18T20:47:13.558Z,12.40
2018-09-18T20:49:42.102Z,13.13
2018-09-18T20:52:10.337Z,11.70
2018-09-18T20:54:39.077Z,11.97
2018-09-18T20:57:07.269Z,11.70
2018-09-18T20:59:35.480Z,11.07
2018-09-18T21:02:03.707Z,11.90
2018-09-18T21:04:31.933Z,9.93
2018-09-18T21:07:00.253Z,9.90
2018-09-18T21:09:29.669Z,11.37
2018-09-18T21:11:58.121Z,13.93
2018-09-18T21:14:26.323Z,13.17
2018-09-18T21:16:54.513Z,11.57
2018-09-18T21:19:22.698Z,20.00
2018-09-18T21:21:50.881Z,13.23
2018-09-18T21:24:19.071Z,12.80
2018-09-18T21:26:47.267Z,11.53
2018-09-18T21:29:15.660Z,10.80
2018-09-18T21:31:43.827Z,10.30
2018-09-18T21:34:12.075Z,9.97
2018-09-18T21:36:40.277Z,10.33
2018-09-18T21:39:09.616Z,10.47
2018-09-18T21:41:37.835Z,9.33
2018-09-18T21:44:06.156Z,9.67
2018-09-18T21:46:34.338Z,11.23
2018-09-18T21:49:02.651Z,9.50
2018-09-18T21:51:30.861Z,9.93
2018-09-18T21:53:59.045Z,11.37
2018-09-18T21:56:27.230Z,10.57
2018-09-18T21:58:55.378Z,9.40
2018-09-18T22:01:24.260Z,10.83
2018-09-18T22:03:52.442Z,11.20
2018-09-18T22:06:20.652Z,10.00
2018-09-18T22:08:48.779Z,15.57
2018-09-18T22:11:17.204Z,12.30
2018-09-18T22:13:45.364Z,9.43
2018-09-18T22:16:13.535Z,10.10
2018-09-18T22:18:41.700Z,10.03
2018-09-18T22:21:09.899Z,9.73
2018-09-18T22:23:38.026Z,11.10
2018-09-18T22:26:06.283Z,10.40
2018-09-18T22:28:34.406Z,8.37
2018-09-18T22:31:02.804Z,10.33
2018-09-18T22:33:31.093Z,9.17
2018-09-18T22:35:59.349Z,9.60
2018-09-18T22:38:27.589Z,10.00
2018-09-18T22:40:56.481Z,10.40
2018-09-18T22:43:26.114Z,10.23
2018-09-18T22:45:54.270Z,9.20
2018-09-18T22:48:22.467Z,10.27
2018-09-18T22:50:50.589Z,9.40
2018-09-18T22:53:19.649Z,9.47
2018-09-18T22:55:47.831Z,9.83
2018-09-18T22:58:16.099Z,10.30
2018-09-18T23:00:44.273Z,9.50
2018-09-18T23:03:12.439Z,11.60
2018-09-18T23:05:40.592Z,10.13
2018-09-18T23:08:08.785Z,10.53
2018-09-18T23:10:36.955Z,9.50
2018-09-18T23:13:05.103Z,9.43
2018-09-18T23:15:33.282Z,9.10
2018-09-18T23:18:01.449Z,10.10
2018-09-18T23:20:29.687Z,11.40
2018-09-18T23:22:57.864Z,11.23
2018-09-18T23:25:26.043Z,10.20
2018-09-18T23:27:54.218Z,10.30
2018-09-18T23:30:22.391Z,10.60
2018-09-18T23:32:50.581Z,9.93
2018-09-18T23:35:18.864Z,10.83
2018-09-18T23:37:46.967Z,8.50
2018-09-18T23:40:15.178Z,10.80
2018-09-18T23:42:43.336Z,9.93
2018-09-18T23:45:11.477Z,9.30
2018-09-18T23:47:39.651Z,9.50
2018-09-18T23:50:07.786Z,8.57
2018-09-18T23:52:35.961Z,8.50
2018-09-18T23:55:04.122Z,9.00
2018-09-18T23:57:32.340Z,10.50
